Aviation Digital Data Service (ADDS)

Output produced by METARs form (1836 UTC 26 October 2021)
found at http://aviationweather.gov/metar/data/
 
METAR text: KARR 261752Z 06005KT 10SM SCT040 SCT200 13/04 A3009 RMK AO2 SLP191 T01330044 10139 20006 58012
Conditions at: KARR (CHICAGO/AURORA , IL, US) observed 1752 UTC 26 October 2021
Temperature: 13.3°C (56°F)
Dewpoint: 4.4°C (40°F) [RH = 55%]
Pressure (altimeter): 30.09 inches Hg (1019.0 mb)
[Sea-level pressure: 1019.1 mb]
Winds: from the ENE (60 degrees) at 6 MPH (5 knots; 2.6 m/s)
Visibility: 10 or more miles (16+ km)
Ceiling: at least 12,000 feet AGL
Clouds: scattered clouds at 4000 feet AGL
scattered clouds at 20000 feet AGL
Weather: no significant weather observed at this time